createdAt,value
2023-01-24T00:01:33.204Z,3.50
2023-01-24T00:04:01.991Z,3.50
2023-01-24T00:06:30.948Z,3.50
2023-01-24T00:08:59.744Z,3.60
2023-01-24T00:11:28.575Z,3.50
2023-01-24T00:13:57.591Z,3.50
2023-01-24T00:16:26.369Z,3.50
2023-01-24T00:18:56.872Z,3.50
2023-01-24T00:21:27.175Z,3.50
2023-01-24T00:23:57.047Z,3.50
2023-01-24T00:26:28.062Z,3.50
2023-01-24T00:28:59.111Z,3.40
2023-01-24T00:31:28.278Z,3.40
2023-01-24T00:33:58.593Z,3.40
2023-01-24T00:36:28.837Z,3.40
2023-01-24T00:38:57.683Z,3.40
2023-01-24T00:41:26.444Z,3.40
2023-01-24T00:43:55.482Z,3.40
2023-01-24T00:46:24.570Z,3.40
2023-01-24T00:48:53.380Z,3.40
2023-01-24T00:51:23.683Z,3.40
2023-01-24T00:53:52.649Z,3.40
2023-01-24T00:56:21.342Z,3.40
2023-01-24T00:58:50.208Z,3.40
2023-01-24T01:01:19.335Z,3.40
2023-01-24T01:03:48.344Z,3.40
2023-01-24T01:06:18.333Z,3.40
2023-01-24T01:08:48.584Z,3.30
2023-01-24T01:11:17.598Z,3.40
2023-01-24T01:13:49.178Z,3.40
2023-01-24T01:16:20.440Z,3.40
2023-01-24T01:18:49.999Z,3.40
2023-01-24T01:21:21.527Z,3.30
2023-01-24T01:23:53.071Z,3.40
2023-01-24T01:26:23.466Z,3.30
2023-01-24T01:28:53.203Z,3.40
2023-01-24T01:31:22.546Z,3.40
2023-01-24T01:33:51.479Z,3.40
2023-01-24T01:36:20.250Z,3.30
2023-01-24T01:38:49.008Z,3.30
2023-01-24T01:41:19.276Z,3.30
2023-01-24T01:44:01.985Z,3.30
2023-01-24T01:46:37.771Z,3.30
2023-01-24T01:49:08.520Z,3.30
2023-01-24T01:51:44.281Z,3.30
2023-01-24T01:54:17.921Z,3.20
2023-01-24T01:56:52.996Z,3.30
2023-01-24T01:59:26.586Z,3.20
2023-01-24T02:01:57.330Z,3.20
2023-01-24T02:04:29.212Z,3.20
2023-01-24T02:07:03.189Z,3.20
2023-01-24T02:09:39.295Z,3.20
2023-01-24T02:12:14.266Z,3.20
2023-01-24T02:15:01.255Z,3.20
2023-01-24T02:17:32.740Z,3.20
2023-01-24T02:20:34.292Z,3.10
2023-01-24T02:23:23.158Z,3.10
2023-01-24T02:26:03.687Z,3.10
2023-01-24T02:28:32.724Z,3.10
2023-01-24T02:31:02.675Z,3.10
2023-01-24T02:33:32.368Z,3.10
2023-01-24T02:36:24.044Z,3.10
2023-01-24T02:38:57.749Z,3.10
2023-01-24T02:41:34.042Z,3.00
2023-01-24T02:44:08.150Z,3.00
2023-01-24T02:46:38.555Z,3.00
2023-01-24T02:49:10.257Z,3.00
2023-01-24T02:51:56.732Z,3.00
2023-01-24T02:54:25.808Z,3.00
2023-01-24T02:57:13.723Z,2.90
2023-01-24T02:59:42.532Z,3.00
2023-01-24T03:02:11.270Z,3.00
2023-01-24T03:04:40.141Z,2.90
2023-01-24T03:07:08.902Z,2.90
2023-01-24T03:09:39.886Z,2.90
2023-01-24T03:12:27.901Z,2.90
2023-01-24T03:15:13.871Z,2.90
2023-01-24T03:17:59.840Z,2.90
2023-01-24T03:20:46.237Z,2.90
2023-01-24T03:23:32.867Z,2.90
2023-01-24T03:26:19.529Z,2.80
2023-01-24T03:29:07.348Z,2.80
2023-01-24T03:31:54.136Z,2.80
2023-01-24T03:34:31.612Z,2.80
2023-01-24T03:37:00.947Z,2.80
2023-01-24T03:39:47.264Z,2.80
2023-01-24T03:42:16.257Z,2.80
2023-01-24T03:44:46.515Z,2.80
2023-01-24T03:47:15.254Z,2.80
2023-01-24T03:50:01.545Z,2.70
2023-01-24T03:52:30.634Z,2.70
2023-01-24T03:55:00.183Z,2.70
2023-01-24T03:57:29.946Z,2.70
2023-01-24T04:00:00.076Z,2.70
2023-01-24T04:02:28.851Z,2.60
2023-01-24T04:05:15.771Z,2.60
2023-01-24T04:07:44.911Z,2.70
2023-01-24T04:10:14.848Z,2.60
2023-01-24T04:12:43.827Z,2.60
2023-01-24T04:15:26.562Z,2.60
2023-01-24T04:17:58.379Z,2.60
2023-01-24T04:20:29.292Z,2.60
2023-01-24T04:22:58.462Z,2.60
2023-01-24T04:25:27.255Z,2.60
2023-01-24T04:27:56.344Z,2.60
2023-01-24T04:30:27.043Z,2.60
2023-01-24T04:32:56.000Z,2.60
2023-01-24T04:35:26.887Z,2.60
2023-01-24T04:37:59.099Z,2.60
2023-01-24T04:40:27.960Z,2.60
2023-01-24T04:42:58.573Z,2.60
2023-01-24T04:45:29.306Z,2.60
2023-01-24T04:47:58.283Z,2.60
2023-01-24T04:50:27.191Z,2.50
2023-01-24T04:52:56.057Z,2.60
2023-01-24T04:55:25.324Z,2.50
2023-01-24T04:57:54.550Z,2.50
2023-01-24T05:00:23.445Z,2.50
2023-01-24T05:02:54.457Z,2.50
2023-01-24T05:05:23.624Z,2.50
2023-01-24T05:07:52.552Z,2.50
2023-01-24T05:10:22.480Z,2.50
2023-01-24T05:12:51.472Z,2.50
2023-01-24T05:15:25.235Z,2.50
2023-01-24T05:17:56.812Z,2.50
2023-01-24T05:20:25.945Z,2.50
2023-01-24T05:22:57.076Z,2.50
2023-01-24T05:25:26.203Z,2.50
2023-01-24T05:27:54.981Z,2.50
2023-01-24T05:30:23.853Z,2.50
2023-01-24T05:32:55.452Z,2.40
2023-01-24T05:35:28.453Z,2.50
2023-01-24T05:37:57.565Z,2.50
2023-01-24T05:40:27.112Z,2.50
2023-01-24T05:42:56.342Z,2.50
2023-01-24T05:45:27.094Z,2.50
2023-01-24T05:47:57.754Z,2.50
2023-01-24T05:50:27.975Z,2.40
2023-01-24T05:52:57.098Z,2.50
2023-01-24T05:55:25.983Z,2.40
2023-01-24T05:57:54.872Z,2.40
2023-01-24T06:00:24.473Z,2.50
2023-01-24T06:02:54.042Z,2.40
2023-01-24T06:05:23.282Z,2.40
2023-01-24T06:07:55.413Z,2.40
2023-01-24T06:10:24.168Z,2.40
2023-01-24T06:12:52.974Z,2.40
2023-01-24T06:15:22.138Z,2.40
2023-01-24T06:17:51.452Z,2.40
2023-01-24T06:20:20.858Z,2.40
2023-01-24T06:22:55.643Z,2.40
2023-01-24T06:25:27.201Z,2.30
2023-01-24T06:27:56.739Z,2.30
2023-01-24T06:30:25.963Z,2.30
2023-01-24T06:33:09.414Z,2.30
2023-01-24T06:35:49.549Z,2.30
2023-01-24T06:38:23.226Z,2.30
2023-01-24T06:40:57.099Z,2.30
2023-01-24T06:43:27.597Z,2.30
2023-01-24T06:45:57.535Z,2.40
2023-01-24T06:48:26.230Z,2.40
2023-01-24T06:50:56.148Z,2.30
2023-01-24T06:53:26.177Z,2.30
2023-01-24T06:55:54.961Z,2.30
2023-01-24T06:58:23.581Z,2.30
2023-01-24T07:00:54.576Z,2.30
2023-01-24T07:03:23.270Z,2.30
2023-01-24T07:05:51.931Z,2.30
2023-01-24T07:08:22.291Z,2.30
2023-01-24T07:10:52.454Z,2.30
2023-01-24T07:13:21.498Z,2.30
2023-01-24T07:15:50.225Z,2.30
2023-01-24T07:18:20.816Z,2.30
2023-01-24T07:20:50.080Z,2.30
2023-01-24T07:23:23.151Z,2.30
2023-01-24T07:25:54.007Z,2.30
2023-01-24T07:28:22.949Z,2.30
2023-01-24T07:30:51.667Z,2.30
2023-01-24T07:33:20.571Z,2.30
2023-01-24T07:35:49.285Z,2.30
2023-01-24T07:38:17.930Z,2.30
2023-01-24T07:40:46.570Z,2.30
2023-01-24T07:43:16.636Z,2.30
2023-01-24T07:45:47.567Z,2.30
2023-01-24T07:48:16.361Z,2.30
2023-01-24T07:50:44.943Z,2.40
2023-01-24T07:53:13.808Z,2.40
2023-01-24T07:55:50.114Z,2.40
2023-01-24T07:58:27.021Z,2.50
2023-01-24T08:00:56.005Z,2.40
2023-01-24T08:03:24.764Z,2.40
2023-01-24T08:05:53.401Z,2.40
2023-01-24T08:08:22.048Z,2.40
2023-01-24T08:10:50.805Z,2.40
2023-01-24T08:13:19.449Z,2.30
2023-01-24T08:15:49.627Z,2.30
2023-01-24T08:18:18.829Z,2.30
2023-01-24T08:20:47.603Z,2.30
2023-01-24T08:23:16.351Z,2.30
2023-01-24T08:25:45.049Z,2.30
2023-01-24T08:28:13.791Z,2.30
2023-01-24T08:30:42.500Z,2.30
2023-01-24T08:33:18.497Z,2.30
2023-01-24T08:35:47.914Z,2.30
2023-01-24T08:38:17.793Z,2.30
2023-01-24T08:40:49.935Z,2.30
2023-01-24T08:43:19.788Z,2.30
2023-01-24T08:45:49.191Z,2.30
2023-01-24T08:48:19.220Z,2.30
2023-01-24T08:50:47.862Z,2.30
2023-01-24T08:53:16.823Z,2.30
2023-01-24T08:55:45.617Z,2.40
2023-01-24T08:58:14.255Z,2.40
2023-01-24T09:00:42.927Z,2.40
2023-01-24T09:03:13.132Z,2.40
2023-01-24T09:05:43.496Z,2.40
2023-01-24T09:08:12.805Z,2.40
2023-01-24T09:10:41.591Z,2.40
2023-01-24T09:13:10.216Z,2.50
2023-01-24T09:15:38.934Z,2.50
2023-01-24T09:18:07.863Z,2.50
2023-01-24T09:20:37.190Z,2.50
2023-01-24T09:23:13.127Z,2.50
2023-01-24T09:25:42.188Z,2.50
2023-01-24T09:28:10.927Z,2.50
2023-01-24T09:30:39.557Z,2.50
2023-01-24T09:33:08.430Z,2.50
2023-01-24T09:35:37.074Z,2.50
2023-01-24T09:38:06.800Z,2.50
2023-01-24T09:40:45.731Z,2.60
2023-01-24T09:43:24.087Z,2.60
2023-01-24T09:46:06.004Z,2.60
2023-01-24T09:48:35.894Z,2.60
2023-01-24T09:51:08.887Z,2.70
2023-01-24T09:53:43.957Z,2.70
2023-01-24T09:56:27.626Z,2.70
2023-01-24T09:59:12.325Z,2.70
2023-01-24T10:01:41.664Z,2.60
2023-01-24T10:04:21.496Z,2.70
2023-01-24T10:07:13.182Z,2.70
2023-01-24T10:09:57.756Z,2.70
2023-01-24T10:12:39.924Z,2.70
2023-01-24T10:15:19.606Z,2.70
2023-01-24T10:18:28.822Z,2.70
2023-01-24T10:21:25.009Z,2.70
2023-01-24T10:23:58.527Z,2.70
2023-01-24T10:26:35.504Z,2.70
2023-01-24T10:29:15.342Z,2.70
2023-01-24T10:31:46.101Z,2.70
2023-01-24T10:34:18.685Z,2.70
2023-01-24T10:36:51.695Z,2.80
2023-01-24T10:39:20.376Z,2.80
2023-01-24T10:41:49.040Z,2.80
2023-01-24T10:44:26.241Z,2.80
2023-01-24T10:47:24.709Z,2.70
2023-01-24T10:49:59.335Z,2.80
2023-01-24T10:52:28.252Z,2.80
2023-01-24T10:54:58.184Z,2.80
2023-01-24T10:57:39.863Z,2.90
2023-01-24T11:00:21.166Z,2.90
2023-01-24T11:02:52.358Z,2.90
2023-01-24T11:05:23.586Z,3.00
2023-01-24T11:07:54.254Z,2.90
2023-01-24T11:10:25.987Z,2.90
2023-01-24T11:12:57.217Z,2.90
2023-01-24T11:15:29.085Z,2.90
2023-01-24T11:18:00.204Z,2.90
2023-01-24T11:20:31.784Z,3.00
2023-01-24T11:23:17.470Z,2.90
2023-01-24T11:25:56.688Z,2.90
2023-01-24T11:28:26.831Z,2.90
2023-01-24T11:30:58.327Z,2.90
2023-01-24T11:33:43.359Z,3.00
2023-01-24T11:36:28.070Z,3.10
2023-01-24T11:39:00.986Z,3.10
2023-01-24T11:41:36.494Z,3.00
2023-01-24T11:44:42.763Z,3.00
2023-01-24T11:47:17.102Z,3.00
2023-01-24T11:50:03.289Z,3.00
2023-01-24T11:52:57.689Z,3.00
2023-01-24T11:55:40.229Z,3.00
2023-01-24T11:58:31.631Z,3.10
2023-01-24T12:01:08.856Z,3.10
2023-01-24T12:04:06.495Z,3.00
2023-01-24T12:06:45.031Z,3.00
2023-01-24T12:09:21.499Z,3.00
2023-01-24T12:11:59.602Z,3.10
2023-01-24T12:14:57.735Z,3.00
2023-01-24T12:17:43.230Z,3.10
2023-01-24T12:20:35.416Z,3.10
2023-01-24T12:23:13.207Z,3.10
2023-01-24T12:25:46.262Z,3.10
2023-01-24T12:28:24.388Z,3.10
2023-01-24T12:30:56.910Z,3.10
2023-01-24T12:33:32.468Z,3.10
2023-01-24T12:36:09.927Z,3.10
2023-01-24T12:38:44.170Z,3.00
2023-01-24T12:41:23.175Z,3.00
2023-01-24T12:43:59.473Z,3.10
2023-01-24T12:46:35.990Z,3.10
2023-01-24T12:49:43.666Z,3.10
2023-01-24T12:52:22.649Z,3.00
2023-01-24T12:54:55.782Z,3.00
2023-01-24T12:57:29.295Z,3.00
2023-01-24T12:59:58.289Z,3.10
2023-01-24T13:02:47.087Z,3.00
2023-01-24T13:05:27.859Z,2.90
2023-01-24T13:08:13.290Z,2.90
2023-01-24T13:10:53.656Z,3.00
2023-01-24T13:13:32.207Z,3.10
2023-01-24T13:16:28.631Z,3.10
2023-01-24T13:19:06.842Z,3.10
2023-01-24T13:21:44.180Z,3.10
2023-01-24T13:24:37.776Z,3.00
2023-01-24T13:27:23.906Z,3.00
2023-01-24T13:30:07.233Z,3.00
2023-01-24T13:32:39.813Z,2.90
2023-01-24T13:35:18.561Z,3.00
2023-01-24T13:37:53.043Z,3.00
2023-01-24T13:40:29.303Z,2.90
2023-01-24T13:42:58.563Z,2.90
2023-01-24T13:45:53.543Z,2.90
2023-01-24T13:48:48.519Z,2.90
2023-01-24T13:51:44.781Z,2.90
2023-01-24T13:54:21.020Z,2.90
2023-01-24T13:57:25.569Z,2.90
2023-01-24T14:00:21.105Z,2.80
2023-01-24T14:03:15.151Z,2.80
2023-01-24T14:05:53.275Z,2.90
2023-01-24T14:08:39.395Z,2.90
2023-01-24T14:11:22.111Z,2.80
2023-01-24T14:14:29.435Z,2.80
2023-01-24T14:17:27.039Z,2.90
2023-01-24T14:19:59.066Z,2.90
2023-01-24T14:22:39.961Z,2.90
2023-01-24T14:25:35.984Z,2.90
2023-01-24T14:28:14.762Z,2.90
2023-01-24T14:30:49.641Z,3.00
2023-01-24T14:33:31.701Z,3.00
2023-01-24T14:36:09.557Z,2.90
2023-01-24T14:38:38.623Z,2.90
2023-01-24T14:41:07.281Z,2.90
2023-01-24T14:43:39.462Z,2.90
2023-01-24T14:46:14.754Z,2.80
2023-01-24T14:48:43.475Z,2.80
2023-01-24T14:51:18.035Z,2.70
2023-01-24T14:53:51.098Z,2.70
2023-01-24T14:56:20.750Z,2.70
2023-01-24T14:58:50.653Z,2.60
2023-01-24T15:01:29.430Z,2.60
2023-01-24T15:03:58.455Z,2.60
2023-01-24T15:06:29.485Z,2.60
2023-01-24T15:09:00.197Z,2.60
2023-01-24T15:11:31.287Z,2.60
2023-01-24T15:14:02.979Z,2.50
2023-01-24T15:16:37.180Z,2.50
2023-01-24T15:19:08.113Z,2.50
2023-01-24T15:21:40.664Z,2.40
2023-01-24T15:24:22.172Z,2.40
2023-01-24T15:26:51.180Z,2.40
2023-01-24T15:29:45.439Z,2.40
2023-01-24T15:32:38.878Z,2.40
2023-01-24T15:35:25.390Z,2.40
2023-01-24T15:38:15.662Z,2.40
2023-01-24T15:40:53.543Z,2.40
2023-01-24T15:43:46.090Z,2.40
2023-01-24T15:46:39.835Z,2.30
2023-01-24T15:49:39.209Z,2.30
2023-01-24T15:52:21.197Z,2.30
2023-01-24T15:54:53.641Z,2.30
2023-01-24T15:57:25.907Z,2.30
2023-01-24T15:59:57.032Z,2.20
2023-01-24T16:02:25.961Z,2.20
2023-01-24T16:04:55.992Z,2.30
2023-01-24T16:07:24.681Z,2.20
2023-01-24T16:09:56.609Z,2.30
2023-01-24T16:12:27.719Z,2.30
2023-01-24T16:15:12.673Z,2.30
2023-01-24T16:17:41.289Z,2.30
2023-01-24T16:20:20.726Z,2.30
2023-01-24T16:22:49.473Z,2.30
2023-01-24T16:25:20.217Z,2.30
2023-01-24T16:27:49.932Z,2.30
2023-01-24T16:30:21.166Z,2.30
2023-01-24T16:32:50.839Z,2.30
2023-01-24T16:35:21.298Z,2.30
2023-01-24T16:37:50.260Z,2.30
2023-01-24T16:40:20.026Z,2.30
2023-01-24T16:42:50.219Z,2.20
2023-01-24T16:45:20.984Z,2.20
2023-01-24T16:47:49.724Z,2.20
2023-01-24T16:50:20.142Z,2.10
2023-01-24T16:52:48.905Z,2.10
2023-01-24T16:55:17.994Z,2.10
2023-01-24T16:57:46.645Z,2.10
2023-01-24T17:00:16.317Z,2.10
2023-01-24T17:02:46.100Z,2.20
2023-01-24T17:05:15.010Z,2.20
2023-01-24T17:07:45.307Z,2.20
2023-01-24T17:10:14.130Z,2.20
2023-01-24T17:12:42.749Z,2.20
2023-01-24T17:15:12.322Z,2.20
2023-01-24T17:17:41.086Z,2.20
2023-01-24T17:20:12.407Z,2.20
2023-01-24T17:22:41.407Z,2.20
2023-01-24T17:25:12.158Z,2.20
2023-01-24T17:27:40.979Z,2.20
2023-01-24T17:30:10.916Z,2.20
2023-01-24T17:32:39.860Z,2.10
2023-01-24T17:35:09.143Z,2.10
2023-01-24T17:37:38.436Z,2.10
2023-01-24T17:40:08.498Z,2.10
2023-01-24T17:42:38.678Z,2.10
2023-01-24T17:45:08.645Z,2.10
2023-01-24T17:47:37.254Z,2.10
2023-01-24T17:50:06.921Z,2.00
2023-01-24T17:52:36.122Z,2.10
2023-01-24T17:55:05.543Z,2.00
2023-01-24T17:57:34.276Z,2.00
2023-01-24T18:00:05.311Z,2.00
2023-01-24T18:02:34.035Z,2.00
2023-01-24T18:05:03.932Z,2.00
2023-01-24T18:07:32.786Z,2.00
2023-01-24T18:10:01.393Z,2.00
2023-01-24T18:12:30.140Z,2.00
2023-01-24T18:14:58.840Z,2.00
2023-01-24T18:17:28.881Z,2.00
2023-01-24T18:19:58.955Z,2.10
2023-01-24T18:22:28.049Z,2.10
2023-01-24T18:24:56.955Z,2.00
2023-01-24T18:27:25.910Z,2.00
2023-01-24T18:29:54.793Z,2.00
2023-01-24T18:32:23.608Z,2.00
2023-01-24T18:34:53.718Z,2.00
2023-01-24T18:37:22.416Z,2.00
2023-01-24T18:39:51.349Z,1.90
2023-01-24T18:42:20.013Z,1.90
2023-01-24T18:44:48.943Z,2.00
2023-01-24T18:47:18.130Z,2.00
2023-01-24T18:49:46.993Z,1.90
2023-01-24T18:52:17.325Z,2.00
2023-01-24T18:54:46.010Z,2.00
2023-01-24T18:57:14.714Z,2.00
2023-01-24T18:59:43.504Z,1.90
2023-01-24T19:02:12.786Z,1.90
2023-01-24T19:04:41.615Z,1.90
2023-01-24T19:07:10.368Z,1.90
2023-01-24T19:09:40.516Z,1.90
2023-01-24T19:12:10.672Z,1.90
2023-01-24T19:14:39.466Z,1.90
2023-01-24T19:17:09.597Z,1.90
2023-01-24T19:19:38.991Z,1.90
2023-01-24T19:22:09.635Z,1.90
2023-01-24T19:24:41.013Z,1.90
2023-01-24T19:27:09.663Z,1.90
2023-01-24T19:29:38.407Z,2.00
2023-01-24T19:32:07.406Z,1.90
2023-01-24T19:34:36.730Z,1.90
2023-01-24T19:37:06.351Z,1.80
2023-01-24T19:39:35.175Z,1.80
2023-01-24T19:42:05.795Z,1.70
2023-01-24T19:44:34.913Z,1.80
2023-01-24T19:47:03.933Z,1.80
2023-01-24T19:49:32.670Z,1.70
2023-01-24T19:52:01.568Z,1.70
2023-01-24T19:54:30.300Z,1.70
2023-01-24T19:57:01.778Z,1.70
2023-01-24T19:59:32.124Z,1.70
2023-01-24T20:02:02.408Z,1.70
2023-01-24T20:04:38.275Z,1.70
2023-01-24T20:07:10.390Z,1.70
2023-01-24T20:09:39.247Z,1.70
2023-01-24T20:12:08.106Z,1.70
2023-01-24T20:14:38.297Z,1.60
2023-01-24T20:17:07.200Z,1.60
2023-01-24T20:19:36.682Z,1.60
2023-01-24T20:22:05.578Z,1.60
2023-01-24T20:24:35.149Z,1.60
2023-01-24T20:27:03.948Z,1.60
2023-01-24T20:29:33.286Z,1.60
2023-01-24T20:32:11.734Z,1.60
2023-01-24T20:34:45.887Z,1.60
2023-01-24T20:37:15.814Z,1.60
2023-01-24T20:39:44.756Z,1.60
2023-01-24T20:42:13.481Z,1.60
2023-01-24T20:44:42.198Z,1.60
2023-01-24T20:47:12.768Z,1.60
2023-01-24T20:49:41.555Z,1.70
2023-01-24T20:52:10.851Z,1.70
2023-01-24T20:54:41.643Z,1.70
2023-01-24T20:57:10.561Z,1.60
2023-01-24T20:59:39.757Z,1.50
2023-01-24T21:02:12.077Z,1.50
2023-01-24T21:04:40.955Z,1.60
2023-01-24T21:07:10.980Z,1.60
2023-01-24T21:09:39.991Z,1.60
2023-01-24T21:12:09.722Z,1.70
2023-01-24T21:14:38.738Z,1.70
2023-01-24T21:17:07.835Z,1.70
2023-01-24T21:19:43.454Z,1.70
2023-01-24T21:22:16.693Z,1.60
2023-01-24T21:24:45.742Z,1.60
2023-01-24T21:27:14.591Z,1.60
2023-01-24T21:29:43.472Z,1.50
2023-01-24T21:32:14.912Z,1.50
2023-01-24T21:34:45.280Z,1.50
2023-01-24T21:37:27.664Z,1.40
2023-01-24T21:39:58.400Z,1.40
2023-01-24T21:42:27.488Z,1.50
2023-01-24T21:44:56.458Z,1.50
2023-01-24T21:47:25.683Z,1.50
2023-01-24T21:49:58.871Z,1.50
2023-01-24T21:52:30.628Z,1.50
2023-01-24T21:54:59.448Z,1.40
2023-01-24T21:57:45.399Z,1.40
2023-01-24T22:00:14.732Z,1.40
2023-01-24T22:02:43.913Z,1.30
2023-01-24T22:05:14.205Z,1.40
2023-01-24T22:07:42.983Z,1.40
2023-01-24T22:10:13.355Z,1.40
2023-01-24T22:12:42.425Z,1.30
2023-01-24T22:15:16.931Z,1.30
2023-01-24T22:17:45.995Z,1.40
2023-01-24T22:20:20.038Z,1.40
2023-01-24T22:23:03.547Z,1.40
2023-01-24T22:25:39.387Z,1.40
2023-01-24T22:28:16.050Z,1.40
2023-01-24T22:30:45.462Z,1.40
2023-01-24T22:33:14.778Z,1.50
2023-01-24T22:35:46.981Z,1.50
2023-01-24T22:38:15.678Z,1.50
2023-01-24T22:40:44.684Z,1.50
2023-01-24T22:43:13.653Z,1.50
2023-01-24T22:45:42.612Z,1.50
2023-01-24T22:48:15.437Z,1.40
2023-01-24T22:50:45.820Z,1.40
2023-01-24T22:53:14.953Z,1.20
2023-01-24T22:55:44.003Z,1.20
2023-01-24T22:58:12.809Z,1.10
2023-01-24T23:00:41.578Z,1.10
2023-01-24T23:03:10.401Z,1.10
2023-01-24T23:05:39.398Z,1.20
2023-01-24T23:08:09.680Z,1.30
2023-01-24T23:10:38.435Z,1.30
2023-01-24T23:13:25.154Z,1.30
2023-01-24T23:16:13.007Z,1.30
2023-01-24T23:18:59.902Z,1.30
2023-01-24T23:21:35.997Z,1.30
2023-01-24T23:24:06.668Z,1.30
2023-01-24T23:26:35.559Z,1.30
2023-01-24T23:29:35.743Z,1.20
2023-01-24T23:32:05.069Z,1.30
2023-01-24T23:34:38.303Z,1.30
2023-01-24T23:37:07.232Z,1.30
2023-01-24T23:39:37.309Z,1.30
2023-01-24T23:42:06.437Z,1.30
2023-01-24T23:44:35.228Z,1.20
2023-01-24T23:47:04.517Z,1.30
2023-01-24T23:49:33.416Z,1.30
2023-01-24T23:52:02.614Z,1.20
2023-01-24T23:54:31.400Z,1.20
2023-01-24T23:57:01.642Z,1.10
2023-01-24T23:59:31.059Z,1.00
